Time;durP1;ratioP1;P1;durP2;ratioP2;P2;SDS_P1;SDS_P2;PMS_P1;PMS_P2;Temp;Humidity;BMP_temperature;BMP_pressure;BME280_temperature;BME280_humidity;BME280_pressure;Samples;Min_cycle;Max_cycle;Signal;HPM_P1;HPM_P2
2023/09/30 00:01:55;;;;;;;;;;;;;;;;;;6126935;23;19909;-94
2023/09/30 00:04:21;;;;;;;;;;;;;;;;;;6126281;23;19915;-93
2023/09/30 00:06:47;;;;;;;;;;;;;;;;;;6127256;23;19912;-93
2023/09/30 00:09:13;;;;;;;;;;;;;;;;;;6126413;23;19920;-92
2023/09/30 00:11:39;;;;;;;;;;;;;;;;;;6127308;23;19908;-93
2023/09/30 00:14:12;;;;;;;;;;;;;;;;;;6127056;23;19916;-92
2023/09/30 00:16:38;;;;;;;;;;;;;;;;;;6128685;23;19909;-92
2023/09/30 00:19:04;;;;;;;;;;;;;;;;;;6126356;23;19935;-92
2023/09/30 00:21:30;;;;;;;;;;;;;;;;;;6139715;23;20354;-92
2023/09/30 00:23:56;;;;;;;;;;;;;;;;;;6151650;23;19959;-93
2023/09/30 00:26:22;;;;;;;;;;;;;;;;;;6152701;23;19919;-93
2023/09/30 00:28:48;;;;;;;;;;;;;;;;;;6151539;23;19904;-93
2023/09/30 00:31:14;;;;;;;;;;;;;;;;;;6151001;23;19904;-93
2023/09/30 00:33:40;;;;;;;;;;;;;;;;;;6152232;23;19992;-93
2023/09/30 00:36:05;;;;;;;;;;;;;;;;;;6150108;23;20292;-92
2023/09/30 00:38:31;;;;;;;;;;;;;;;;;;6150972;23;20540;-93
2023/09/30 00:40:57;;;;;;;;;;;;;;;;;;6150407;23;19947;-93
2023/09/30 00:43:23;;;;;;;;;;;;;;;;;;6150543;23;19908;-92
2023/09/30 00:45:49;;;;;;;;;;;;;;;;;;6151150;23;19921;-92
2023/09/30 00:48:15;;;;;;;;;;;;;;;;;;6150479;23;19909;-92
2023/09/30 00:50:50;;;;;;;;;;;;;;;;;;6126815;23;21656;-92
2023/09/30 00:53:15;;;;;;;;;;;;;;;;;;6151447;23;19955;-93
2023/09/30 00:55:41;;;;;;;;;;;;;;;;;;6151748;23;19963;-92
2023/09/30 00:58:07;;;;;;;;;;;;;;;;;;6152971;23;19942;-93
2023/09/30 01:00:33;;;;;;;;;;;;;;;;;;6151298;23;19908;-92
2023/09/30 01:03:03;;;;;;;;;;;;;;;;;;6151876;23;19915;-92
2023/09/30 01:05:30;;;;;;;;;;;;;;;;;;6150489;23;19999;-92
2023/09/30 01:07:56;;;;;;;;;;;;;;;;;;6151039;23;20401;-93
2023/09/30 01:10:21;;;;;;;;;;;;;;;;;;6150127;23;19912;-93
2023/09/30 01:12:47;;;;;;;;;;;;;;;;;;6149377;23;19913;-93
2023/09/30 01:15:14;;;;;;;;;;;;;;;;;;6151287;23;19904;-94
2023/09/30 01:17:40;;;;;;;;;;;;;;;;;;6150291;23;19916;-94
2023/09/30 01:20:06;;;;;;;;;;;;;;;;;;6151268;23;19909;-93
2023/09/30 01:22:39;;;;;;;;;;;;;;;;;;6148939;23;19917;-94
2023/09/30 01:25:05;;;;;;;;;;;;;;;;;;6150141;23;19912;-93
2023/09/30 01:27:31;;;;;;;;;;;;;;;;;;6151088;23;20211;-93
2023/09/30 01:29:58;;;;;;;;;;;;;;;;;;6149795;23;20054;-93
2023/09/30 01:32:23;;;;;;;;;;;;;;;;;;6149760;23;19916;-94
2023/09/30 01:34:49;;;;;;;;;;;;;;;;;;6148633;23;19917;-94
2023/09/30 01:37:16;;;;;;;;;;;;;;;;;;6150112;23;19904;-94
2023/09/30 01:39:43;;;;;;;;;;;;;;;;;;6146901;23;19909;-94
2023/09/30 01:42:10;;;;;;;;;;;;;;;;;;6147870;23;20410;-94
2023/09/30 01:44:36;;;;;;;;;;;;;;;;;;6150319;23;19912;-94
2023/09/30 01:47:02;;;;;;;;;;;;;;;;;;6150000;23;19939;-94
2023/09/30 01:49:28;;;;;;;;;;;;;;;;;;6151920;23;20205;-94
2023/09/30 01:51:54;;;;;;;;;;;;;;;;;;6148827;23;20232;-94
2023/09/30 01:54:20;;;;;;;;;;;;;;;;;;6152988;23;19909;-94
2023/09/30 01:56:46;;;;;;;;;;;;;;;;;;6149578;23;20211;-94
2023/09/30 01:59:11;;;;;;;;;;;;;;;;;;6150596;23;19908;-94
2023/09/30 02:01:38;;;;;;;;;;;;;;;;;;6149240;23;19905;-94
2023/09/30 02:04:06;;;;;;;;;;;;;;;;;;6151271;23;19983;-94
2023/09/30 02:06:32;;;;;;;;;;;;;;;;;;6150549;23;20350;-94
2023/09/30 02:08:58;;;;;;;;;;;;;;;;;;6149257;23;19905;-94
2023/09/30 02:11:24;;;;;;;;;;;;;;;;;;6150398;23;19919;-94
2023/09/30 02:13:50;;;;;;;;;;;;;;;;;;6149188;23;19963;-94
2023/09/30 02:16:16;;;;;;;;;;;;;;;;;;6149996;23;19909;-94
2023/09/30 02:18:42;;;;;;;;;;;;;;;;;;6150086;23;19908;-93
2023/09/30 02:21:10;;;;;;;;;;;;;;;;;;6151949;23;19913;-93
2023/09/30 02:23:36;;;;;;;;;;;;;;;;;;6126294;23;19991;-91
2023/09/30 02:26:02;;;;;;;;;;;;;;;;;;6124550;23;19948;-93
2023/09/30 02:28:29;;;;;;;;;;;;;;;;;;6126647;23;19905;-94
2023/09/30 02:30:55;;;;;;;;;;;;;;;;;;6124769;23;20354;-93
2023/09/30 02:33:21;;;;;;;;;;;;;;;;;;6126555;23;19905;-94
2023/09/30 02:35:47;;;;;;;;;;;;;;;;;;6125394;23;19920;-94
2023/09/30 02:38:15;;;;;;;;;;;;;;;;;;6124592;23;19927;-94
2023/09/30 02:40:45;;;;;;;;;;;;;;;;;;6125757;23;19912;-94
2023/09/30 02:43:11;;;;;;;;;;;;;;;;;;6125203;23;20266;-94
2023/09/30 02:45:36;;;;;;;;;;;;;;;;;;6125383;23;19952;-94
2023/09/30 02:48:02;;;;;;;;;;;;;;;;;;6125280;23;19924;-94
2023/09/30 02:50:28;;;;;;;;;;;;;;;;;;6126009;23;19944;-94
2023/09/30 02:52:54;;;;;;;;;;;;;;;;;;6126399;23;20359;-94
2023/09/30 02:55:20;;;;;;;;;;;;;;;;;;6124701;23;19909;-95
2023/09/30 02:57:46;;;;;;;;;;;;;;;;;;6124549;23;19956;-94
2023/09/30 03:00:33;;;;;;;;;;;;;;;;;;6123112;23;19909;-94
2023/09/30 03:02:58;;;;;;;;;;;;;;;;;;6148266;23;20373;-94
2023/09/30 03:05:24;;;;;;;;;;;;;;;;;;6123757;23;19915;-94
2023/09/30 03:07:57;;;;;;;;;;;;;;;;;;6124457;23;20172;-94
2023/09/30 03:10:26;;;;;;;;;;;;;;;;;;6124546;23;19917;-94
2023/09/30 03:12:52;;;;;;;;;;;;;;;;;;6123992;23;19932;-94
2023/09/30 03:15:18;;;;;;;;;;;;;;;;;;6127963;23;19935;-95
2023/09/30 03:17:44;;;;;;;;;;;;;;;;;;6127507;23;19908;-95
2023/09/30 03:20:14;;;;;;;;;;;;;;;;;;6127065;23;20799;-95
2023/09/30 03:22:40;;;;;;;;;;;;;;;;;;6144983;23;19984;-94
2023/09/30 03:25:06;;;;;;;;;;;;;;;;;;6151924;23;19928;-94
2023/09/30 03:27:32;;;;;;;;;;;;;;;;;;6151829;23;20287;-94
2023/09/30 03:29:58;;;;;;;;;;;;;;;;;;6152314;23;20338;-94
2023/09/30 03:32:24;;;;;;;;;;;;;;;;;;6150625;23;19908;-95
2023/09/30 03:34:51;;;;;;;;;;;;;;;;;;6151274;23;19933;-94
2023/09/30 03:37:16;;;;;;;;;;;;;;;;;;6151526;23;19917;-93
2023/09/30 03:39:42;;;;;;;;;;;;;;;;;;6152354;23;19932;-93
2023/09/30 03:42:11;;;;;;;;;;;;;;;;;;6151267;23;19977;-94
2023/09/30 03:44:37;;;;;;;;;;;;;;;;;;6151153;23;19913;-94
2023/09/30 03:47:03;;;;;;;;;;;;;;;;;;6151120;23;19909;-93
2023/09/30 03:49:29;;;;;;;;;;;;;;;;;;6151816;23;20583;-94
2023/09/30 03:51:55;;;;;;;;;;;;;;;;;;6152286;23;19931;-94
2023/09/30 03:54:21;;;;;;;;;;;;;;;;;;6150832;23;20011;-93
2023/09/30 03:56:47;;;;;;;;;;;;;;;;;;6149768;23;19956;-93
2023/09/30 03:59:13;;;;;;;;;;;;;;;;;;6151396;23;19939;-94
2023/09/30 04:01:40;;;;;;;;;;;;;;;;;;6149640;23;19908;-95
2023/09/30 04:04:07;;;;;;;;;;;;;;;;;;6150653;23;19905;-94
2023/09/30 04:06:33;;;;;;;;;;;;;;;;;;6152396;23;19904;-94
2023/09/30 04:08:59;;;;;;;;;;;;;;;;;;6151783;23;19980;-94
2023/09/30 04:11:25;;;;;;;;;;;;;;;;;;6152106;23;19916;-93
2023/09/30 04:13:51;;;;;;;;;;;;;;;;;;6150772;23;20221;-94
2023/09/30 04:16:18;;;;;;;;;;;;;;;;;;6153114;23;19909;-94
2023/09/30 04:18:44;;;;;;;;;;;;;;;;;;6151641;23;19905;-94
2023/09/30 04:21:11;;;;;;;;;;;;;;;;;;6152626;23;19912;-94
2023/09/30 04:23:37;;;;;;;;;;;;;;;;;;6151326;23;20347;-94
2023/09/30 04:26:04;;;;;;;;;;;;;;;;;;6152169;23;19905;-94
2023/09/30 04:28:30;;;;;;;;;;;;;;;;;;6152647;23;19905;-94
2023/09/30 04:30:56;;;;;;;;;;;;;;;;;;6152254;23;19972;-94
2023/09/30 04:33:25;;;;;;;;;;;;;;;;;;6152283;23;19904;-94
2023/09/30 04:35:50;;;;;;;;;;;;;;;;;;6151160;23;19929;-93
2023/09/30 04:38:17;;;;;;;;;;;;;;;;;;6152043;23;20025;-93
2023/09/30 04:40:44;;;;;;;;;;;;;;;;;;6149969;23;20351;-94
2023/09/30 04:43:10;;;;;;;;;;;;;;;;;;6150148;23;19979;-94
2023/09/30 04:45:36;;;;;;;;;;;;;;;;;;6150818;23;19908;-93
2023/09/30 04:48:02;;;;;;;;;;;;;;;;;;6150167;23;19905;-94
2023/09/30 04:50:29;;;;;;;;;;;;;;;;;;6149694;23;19912;-94
2023/09/30 04:52:56;;;;;;;;;;;;;;;;;;6152543;23;19908;-94
2023/09/30 04:55:22;;;;;;;;;;;;;;;;;;6150775;23;19908;-95
2023/09/30 04:57:49;;;;;;;;;;;;;;;;;;6151734;23;20323;-93
2023/09/30 05:00:17;;;;;;;;;;;;;;;;;;6151513;23;19908;-94
2023/09/30 05:02:44;;;;;;;;;;;;;;;;;;6150788;23;19905;-93
2023/09/30 05:05:10;;;;;;;;;;;;;;;;;;6151551;23;20351;-94
2023/09/30 05:07:36;;;;;;;;;;;;;;;;;;6150821;23;20547;-94
2023/09/30 05:10:05;;;;;;;;;;;;;;;;;;6149762;23;19909;-93
2023/09/30 05:12:31;;;;;;;;;;;;;;;;;;6150475;23;20283;-93
2023/09/30 05:14:57;;;;;;;;;;;;;;;;;;6149951;23;19916;-93
2023/09/30 05:17:23;;;;;;;;;;;;;;;;;;6149854;23;19905;-93
2023/09/30 05:19:49;;;;;;;;;;;;;;;;;;6150209;23;19908;-93
2023/09/30 05:22:15;;;;;;;;;;;;;;;;;;6153537;23;19959;-94
2023/09/30 05:24:41;;;;;;;;;;;;;;;;;;6126330;23;19932;-93
2023/09/30 05:27:10;;;;;;;;;;;;;;;;;;6127987;23;19975;-93
2023/09/30 05:29:36;;;;;;;;;;;;;;;;;;6125477;23;19917;-93
2023/09/30 05:32:02;;;;;;;;;;;;;;;;;;6126311;23;19947;-93
2023/09/30 05:34:28;;;;;;;;;;;;;;;;;;6124759;23;19908;-93
2023/09/30 05:36:54;;;;;;;;;;;;;;;;;;6124410;23;19936;-93
2023/09/30 05:39:20;;;;;;;;;;;;;;;;;;6124033;23;19983;-94
2023/09/30 05:41:46;;;;;;;;;;;;;;;;;;6124888;23;20290;-93
2023/09/30 05:44:14;;;;;;;;;;;;;;;;;;6125548;23;19936;-92
2023/09/30 05:46:40;;;;;;;;;;;;;;;;;;6127260;23;19924;-93
2023/09/30 05:49:11;;;;;;;;;;;;;;;;;;6125794;23;19908;-93
2023/09/30 05:51:37;;;;;;;;;;;;;;;;;;6126094;23;19908;-93
2023/09/30 05:54:04;;;;;;;;;;;;;;;;;;6126193;23;19909;-93
2023/09/30 05:56:30;;;;;;;;;;;;;;;;;;6125498;23;20342;-94
2023/09/30 05:58:57;;;;;;;;;;;;;;;;;;6125762;23;19905;-94
2023/09/30 06:01:23;;;;;;;;;;;;;;;;;;6126186;23;19908;-94
2023/09/30 06:03:49;;;;;;;;;;;;;;;;;;6127214;23;19916;-93
2023/09/30 06:06:15;;;;;;;;;;;;;;;;;;6125627;23;20339;-94
2023/09/30 06:08:41;;;;;;;;;;;;;;;;;;6127493;23;19908;-94
2023/09/30 06:11:07;;;;;;;;;;;;;;;;;;6125442;23;19919;-94
2023/09/30 06:13:33;;;;;;;;;;;;;;;;;;6125684;23;19951;-94
2023/09/30 06:16:06;;;;;;;;;;;;;;;;;;6126257;23;19963;-94
2023/09/30 06:18:32;;;;;;;;;;;;;;;;;;6126267;23;19939;-95
2023/09/30 06:20:58;;;;;;;;;;;;;;;;;;6126208;23;20323;-93
2023/09/30 06:23:24;;;;;;;;;;;;;;;;;;6136728;23;20092;-94
2023/09/30 06:25:51;;;;;;;;;;;;;;;;;;6148060;23;19944;-94
2023/09/30 06:28:17;;;;;;;;;;;;;;;;;;6151543;23;19984;-94
2023/09/30 06:30:45;;;;;;;;;;;;;;;;;;6150469;23;19963;-93
2023/09/30 06:33:14;;;;;;;;;;;;;;;;;;6150676;23;20606;-93
2023/09/30 06:35:49;;;;;;;;;;;;;;;;;;6149731;23;19909;-94
2023/09/30 06:38:15;;;;;;;;;;;;;;;;;;6151045;23;20510;-94
2023/09/30 06:40:42;;;;;;;;;;;;;;;;;;6149682;23;20329;-95
2023/09/30 06:43:08;;;;;;;;;;;;;;;;;;6151993;23;19909;-94
2023/09/30 06:45:39;;;;;;;;;;;;;;;;;;6150253;23;19912;-94
2023/09/30 06:48:05;;;;;;;;;;;;;;;;;;6150814;23;20322;-94
2023/09/30 06:50:31;;;;;;;;;;;;;;;;;;6153626;23;19908;-93
2023/09/30 06:52:57;;;;;;;;;;;;;;;;;;6150700;23;19912;-93
2023/09/30 06:55:25;;;;;;;;;;;;;;;;;;6151697;23;19904;-94
2023/09/30 06:57:50;;;;;;;;;;;;;;;;;;6150998;23;20340;-94
2023/09/30 07:00:16;;;;;;;;;;;;;;;;;;6151384;23;19940;-94
2023/09/30 07:02:42;;;;;;;;;;;;;;;;;;6152263;23;19924;-94
2023/09/30 07:05:08;;;;;;;;;;;;;;;;;;6151953;23;20368;-93
2023/09/30 07:07:34;;;;;;;;;;;;;;;;;;6152375;23;20211;-93
2023/09/30 07:10:00;;;;;;;;;;;;;;;;;;6150483;23;19955;-94
2023/09/30 07:12:27;;;;;;;;;;;;;;;;;;6150290;23;19908;-94
2023/09/30 07:14:53;;;;;;;;;;;;;;;;;;6150329;23;19909;-94
2023/09/30 07:17:19;;;;;;;;;;;;;;;;;;6150958;23;20296;-95
2023/09/30 07:19:45;;;;;;;;;;;;;;;;;;6151203;23;19908;-94
2023/09/30 07:22:11;;;;;;;;;;;;;;;;;;6150832;23;19911;-94
2023/09/30 07:24:39;;;;;;;;;;;;;;;;;;6152127;23;19939;-94
2023/09/30 07:27:06;;;;;;;;;;;;;;;;;;6150648;23;20132;-93
2023/09/30 07:29:33;;;;;;;;;;;;;;;;;;6149755;23;19917;-93
2023/09/30 07:31:59;;;;;;;;;;;;;;;;;;6151272;23;19951;-94
2023/09/30 07:34:24;;;;;;;;;;;;;;;;;;6150097;23;19905;-94
2023/09/30 07:36:51;;;;;;;;;;;;;;;;;;6150276;23;19967;-94
2023/09/30 07:39:17;;;;;;;;;;;;;;;;;;6151454;23;19909;-94
2023/09/30 07:41:43;;;;;;;;;;;;;;;;;;6151997;23;19995;-94
2023/09/30 07:44:09;;;;;;;;;;;;;;;;;;6150892;23;20394;-94
2023/09/30 07:46:35;;;;;;;;;;;;;;;;;;6152194;23;19951;-94
2023/09/30 07:49:03;;;;;;;;;;;;;;;;;;6151238;23;19904;-94
2023/09/30 07:51:29;;;;;;;;;;;;;;;;;;6150014;23;20039;-94
2023/09/30 07:53:55;;;;;;;;;;;;;;;;;;6151607;23;19908;-94
2023/09/30 07:56:21;;;;;;;;;;;;;;;;;;6153240;23;19912;-94
2023/09/30 07:58:48;;;;;;;;;;;;;;;;;;6151408;23;19909;-95
2023/09/30 08:01:14;;;;;;;;;;;;;;;;;;6152140;23;19932;-94
2023/09/30 08:03:40;;;;;;;;;;;;;;;;;;6152263;23;19993;-95
2023/09/30 08:06:06;;;;;;;;;;;;;;;;;;6150439;23;20378;-94
2023/09/30 08:08:36;;;;;;;;;;;;;;;;;;6153020;23;19912;-94
2023/09/30 08:11:02;;;;;;;;;;;;;;;;;;6152849;23;19958;-94
2023/09/30 08:13:29;;;;;;;;;;;;;;;;;;6148619;23;19908;-94
2023/09/30 08:15:55;;;;;;;;;;;;;;;;;;6150695;23;19908;-94
2023/09/30 08:18:21;;;;;;;;;;;;;;;;;;6149799;23;19936;-93
2023/09/30 08:20:47;;;;;;;;;;;;;;;;;;6151009;23;19909;-94
2023/09/30 08:23:13;;;;;;;;;;;;;;;;;;6151325;23;19908;-94
2023/09/30 08:25:39;;;;;;;;;;;;;;;;;;6152670;23;20350;-94
2023/09/30 08:28:06;;;;;;;;;;;;;;;;;;6151211;23;19908;-93
2023/09/30 08:30:32;;;;;;;;;;;;;;;;;;6152480;23;19912;-93
2023/09/30 08:32:58;;;;;;;;;;;;;;;;;;6151668;23;19908;-93
2023/09/30 08:35:24;;;;;;;;;;;;;;;;;;6152035;23;19915;-92
2023/09/30 08:37:50;;;;;;;;;;;;;;;;;;6151224;23;19913;-93
2023/09/30 08:40:16;;;;;;;;;;;;;;;;;;6151539;23;19976;-93
2023/09/30 08:42:43;;;;;;;;;;;;;;;;;;6151812;23;19916;-93
2023/09/30 08:45:09;;;;;;;;;;;;;;;;;;6153437;23;19909;-93
2023/09/30 08:47:35;;;;;;;;;;;;;;;;;;6151186;23;20327;-92
2023/09/30 08:50:05;;;;;;;;;;;;;;;;;;6152887;23;19919;-93
2023/09/30 08:52:31;;;;;;;;;;;;;;;;;;6152510;23;20246;-93
2023/09/30 08:54:57;;;;;;;;;;;;;;;;;;6150622;23;20347;-94
2023/09/30 08:57:23;;;;;;;;;;;;;;;;;;6152692;23;19909;-95
2023/09/30 08:59:51;;;;;;;;;;;;;;;;;;6156465;23;19915;-95
2023/09/30 09:02:17;;;;;;;;;;;;;;;;;;6155192;23;19983;-96
2023/09/30 09:04:43;;;;;;;;;;;;;;;;;;6153209;23;19908;-96
2023/09/30 09:07:09;;;;;;;;;;;;;;;;;;6153342;23;20346;-95
2023/09/30 09:09:35;;;;;;;;;;;;;;;;;;6152666;23;19913;-95
2023/09/30 09:12:02;;;;;;;;;;;;;;;;;;6153799;23;19909;-95
2023/09/30 09:14:28;;;;;;;;;;;;;;;;;;6152449;23;19923;-95
2023/09/30 09:16:54;;;;;;;;;;;;;;;;;;6153412;23;19944;-95
2023/09/30 09:19:21;;;;;;;;;;;;;;;;;;6154102;23;19912;-96
2023/09/30 09:21:47;;;;;;;;;;;;;;;;;;6153897;23;19909;-95
2023/09/30 09:24:13;;;;;;;;;;;;;;;;;;6154171;23;20423;-96
2023/09/30 09:26:39;;;;;;;;;;;;;;;;;;6155234;23;19987;-96
2023/09/30 09:29:05;;;;;;;;;;;;;;;;;;6153843;23;19904;-96
2023/09/30 09:31:31;;;;;;;;;;;;;;;;;;6152188;23;19908;-94
2023/09/30 09:33:57;;;;;;;;;;;;;;;;;;6153480;23;19912;-93
2023/09/30 09:36:23;;;;;;;;;;;;;;;;;;6152479;23;19932;-94
2023/09/30 09:38:49;;;;;;;;;;;;;;;;;;6153159;23;19984;-95
2023/09/30 09:41:15;;;;;;;;;;;;;;;;;;6153636;23;20342;-95
2023/09/30 09:43:41;;;;;;;;;;;;;;;;;;6152883;23;20338;-94
2023/09/30 09:46:07;;;;;;;;;;;;;;;;;;6150942;23;19908;-94
2023/09/30 09:48:33;;;;;;;;;;;;;;;;;;6153078;23;19991;-94
2023/09/30 09:50:59;;;;;;;;;;;;;;;;;;6151343;23;19929;-94
2023/09/30 09:53:25;;;;;;;;;;;;;;;;;;6151635;23;19928;-94
2023/09/30 09:55:51;;;;;;;;;;;;;;;;;;6151504;23;19905;-94
2023/09/30 09:58:17;;;;;;;;;;;;;;;;;;6151420;23;19940;-95
2023/09/30 10:00:44;;;;;;;;;;;;;;;;;;6151556;23;20374;-94
2023/09/30 10:03:11;;;;;;;;;;;;;;;;;;6151679;23;19904;-94
2023/09/30 10:05:39;;;;;;;;;;;;;;;;;;6152135;23;19912;-94
2023/09/30 10:08:05;;;;;;;;;;;;;;;;;;6151189;23;19904;-94
2023/09/30 10:10:31;;;;;;;;;;;;;;;;;;6151868;23;19912;-94
2023/09/30 10:12:57;;;;;;;;;;;;;;;;;;6153067;23;19905;-95
2023/09/30 10:15:23;;;;;;;;;;;;;;;;;;6155740;23;20285;-95
2023/09/30 10:17:49;;;;;;;;;;;;;;;;;;6155928;23;19905;-95
2023/09/30 10:20:16;;;;;;;;;;;;;;;;;;6154815;23;19955;-95
2023/09/30 10:22:44;;;;;;;;;;;;;;;;;;6156210;23;20117;-95
2023/09/30 10:25:10;;;;;;;;;;;;;;;;;;6156972;23;20303;-96
2023/09/30 10:27:39;;;;;;;;;;;;;;;;;;6157232;23;19913;-95
2023/09/30 10:30:15;;;;;;;;;;;;;;;;;;6158322;23;20236;-95
2023/09/30 10:32:41;;;;;;;;;;;;;;;;;;6157573;23;19904;-96
2023/09/30 10:35:07;;;;;;;;;;;;;;;;;;6157434;23;19908;-96
2023/09/30 10:37:33;;;;;;;;;;;;;;;;;;6157989;23;19911;-95
2023/09/30 10:39:59;;;;;;;;;;;;;;;;;;6156414;23;19905;-96
2023/09/30 10:42:25;;;;;;;;;;;;;;;;;;6156406;23;19927;-95
2023/09/30 10:44:51;;;;;;;;;;;;;;;;;;6152010;23;19904;-94
2023/09/30 10:47:17;;;;;;;;;;;;;;;;;;6150293;23;19932;-94
2023/09/30 10:49:43;;;;;;;;;;;;;;;;;;6152295;23;19908;-94
2023/09/30 10:52:10;;;;;;;;;;;;;;;;;;6151819;23;20306;-94
2023/09/30 10:54:36;;;;;;;;;;;;;;;;;;6153668;23;19904;-94
2023/09/30 10:57:03;;;;;;;;;;;;;;;;;;6153170;23;19940;-93
2023/09/30 10:59:30;;;;;;;;;;;;;;;;;;6153264;23;19915;-94
2023/09/30 11:01:56;;;;;;;;;;;;;;;;;;6154934;23;19987;-94
2023/09/30 11:04:22;;;;;;;;;;;;;;;;;;6154745;23;19909;-94
2023/09/30 11:06:50;;;;;;;;;;;;;;;;;;6155402;23;20416;-95
2023/09/30 11:09:16;;;;;;;;;;;;;;;;;;6155026;23;20304;-95
2023/09/30 11:11:43;;;;;;;;;;;;;;;;;;6158010;23;19928;-95
2023/09/30 11:14:09;;;;;;;;;;;;;;;;;;6156918;23;19908;-94
2023/09/30 11:16:35;;;;;;;;;;;;;;;;;;6156056;23;19909;-95
2023/09/30 11:19:01;;;;;;;;;;;;;;;;;;6155254;23;19904;-94
2023/09/30 11:21:27;;;;;;;;;;;;;;;;;;6156256;23;20231;-94
2023/09/30 11:23:54;;;;;;;;;;;;;;;;;;6157735;23;19956;-95
2023/09/30 11:26:20;;;;;;;;;;;;;;;;;;6157402;23;20351;-95
2023/09/30 11:28:46;;;;;;;;;;;;;;;;;;6155842;23;20003;-94
2023/09/30 11:31:14;;;;;;;;;;;;;;;;;;6155991;23;20251;-94
2023/09/30 11:33:40;;;;;;;;;;;;;;;;;;6155682;23;19966;-94
2023/09/30 11:36:06;;;;;;;;;;;;;;;;;;6155462;23;19908;-94
2023/09/30 11:38:32;;;;;;;;;;;;;;;;;;6156508;23;19928;-94
2023/09/30 11:40:59;;;;;;;;;;;;;;;;;;6153835;23;19915;-95
2023/09/30 11:43:25;;;;;;;;;;;;;;;;;;6153484;23;19927;-94
2023/09/30 11:45:51;;;;;;;;;;;;;;;;;;6154383;23;19959;-95
2023/09/30 11:48:19;;;;;;;;;;;;;;;;;;6154995;23;19915;-95
2023/09/30 11:50:46;;;;;;;;;;;;;;;;;;6153341;23;20392;-95
2023/09/30 11:53:11;;;;;;;;;;;;;;;;;;6154602;23;19905;-94
2023/09/30 11:55:37;;;;;;;;;;;;;;;;;;6154311;23;19915;-94
2023/09/30 11:58:03;;;;;;;;;;;;;;;;;;6151744;23;19959;-94
2023/09/30 12:00:29;;;;;;;;;;;;;;;;;;6152918;23;19905;-94
2023/09/30 12:02:55;;;;;;;;;;;;;;;;;;6153672;23;19940;-93
2023/09/30 12:05:22;;;;;;;;;;;;;;;;;;6151281;23;19967;-92
2023/09/30 12:07:48;;;;;;;;;;;;;;;;;;6150874;23;19980;-93
2023/09/30 12:10:14;;;;;;;;;;;;;;;;;;6152827;23;19943;-93
2023/09/30 12:12:40;;;;;;;;;;;;;;;;;;6151484;23;19912;-93
2023/09/30 12:15:13;;;;;;;;;;;;;;;;;;6150453;23;19904;-93
2023/09/30 12:17:39;;;;;;;;;;;;;;;;;;6150610;23;20034;-93
2023/09/30 12:20:06;;;;;;;;;;;;;;;;;;6150332;23;20364;-94
2023/09/30 12:22:32;;;;;;;;;;;;;;;;;;6152839;23;19983;-93
2023/09/30 12:25:00;;;;;;;;;;;;;;;;;;6151366;23;19920;-93
2023/09/30 12:27:26;;;;;;;;;;;;;;;;;;6150872;23;19921;-93
2023/09/30 12:29:52;;;;;;;;;;;;;;;;;;6153684;23;20524;-94
2023/09/30 12:32:19;;;;;;;;;;;;;;;;;;6155145;23;19916;-94
2023/09/30 12:34:46;;;;;;;;;;;;;;;;;;6154991;23;20007;-94
2023/09/30 12:37:13;;;;;;;;;;;;;;;;;;6151803;23;20003;-93
2023/09/30 12:39:39;;;;;;;;;;;;;;;;;;6158334;23;19915;-94
2023/09/30 12:42:08;;;;;;;;;;;;;;;;;;6158596;23;19904;-93
2023/09/30 12:44:34;;;;;;;;;;;;;;;;;;6159459;23;19983;-94
2023/09/30 12:47:00;;;;;;;;;;;;;;;;;;6159805;23;19920;-93
2023/09/30 12:49:26;;;;;;;;;;;;;;;;;;6158961;23;19908;-93
2023/09/30 12:51:52;;;;;;;;;;;;;;;;;;6160311;23;19916;-94
2023/09/30 12:54:20;;;;;;;;;;;;;;;;;;6159678;23;19912;-94
2023/09/30 12:56:47;;;;;;;;;;;;;;;;;;6159260;23;19905;-94
2023/09/30 12:59:16;;;;;;;;;;;;;;;;;;6160926;23;19936;-95
2023/09/30 13:01:42;;;;;;;;;;;;;;;;;;6160847;23;19909;-96
2023/09/30 13:04:08;;;;;;;;;;;;;;;;;;6158248;23;19943;-96
2023/09/30 13:06:35;;;;;;;;;;;;;;;;;;6157053;23;19908;-96
2023/09/30 13:09:01;;;;;;;;;;;;;;;;;;6154316;23;20235;-95
2023/09/30 13:11:27;;;;;;;;;;;;;;;;;;6155755;23;20211;-94
2023/09/30 13:13:52;;;;;;;;;;;;;;;;;;6151802;23;19932;-96
2023/09/30 13:16:18;;;;;;;;;;;;;;;;;;6152977;23;20011;-95
2023/09/30 13:18:46;;;;;;;;;;;;;;;;;;6153778;23;19916;-96
2023/09/30 13:21:18;;;;;;;;;;;;;;;;;;6153862;23;19979;-95
2023/09/30 13:23:46;;;;;;;;;;;;;;;;;;6160502;23;20221;-96
2023/09/30 13:26:11;;;;;;;;;;;;;;;;;;6154718;23;19916;-94
2023/09/30 13:28:37;;;;;;;;;;;;;;;;;;6156806;23;19912;-96
2023/09/30 13:31:05;;;;;;;;;;;;;;;;;;6156305;23;19912;-96
2023/09/30 13:33:31;;;;;;;;;;;;;;;;;;6158180;23;19909;-95
2023/09/30 13:35:57;;;;;;;;;;;;;;;;;;6156121;23;19915;-96
2023/09/30 13:38:23;;;;;;;;;;;;;;;;;;6157878;23;19927;-95
2023/09/30 13:40:50;;;;;;;;;;;;;;;;;;6158306;23;19956;-96
2023/09/30 13:43:16;;;;;;;;;;;;;;;;;;6157346;23;19908;-96
2023/09/30 13:45:42;;;;;;;;;;;;;;;;;;6155225;23;19914;-96
2023/09/30 13:48:08;;;;;;;;;;;;;;;;;;6155628;23;19916;-96
2023/09/30 13:50:34;;;;;;;;;;;;;;;;;;6154322;23;19916;-96
2023/09/30 13:53:01;;;;;;;;;;;;;;;;;;6155409;23;20148;-95
2023/09/30 13:55:27;;;;;;;;;;;;;;;;;;6155121;23;19991;-96
2023/09/30 13:57:52;;;;;;;;;;;;;;;;;;6155196;23;19963;-96
2023/09/30 14:00:18;;;;;;;;;;;;;;;;;;6154149;23;19913;-96
2023/09/30 14:02:44;;;;;;;;;;;;;;;;;;6154821;23;19904;-94
2023/09/30 14:05:11;;;;;;;;;;;;;;;;;;6156807;23;19916;-96
2023/09/30 14:07:38;;;;;;;;;;;;;;;;;;6156770;23;19912;-93
2023/09/30 14:10:05;;;;;;;;;;;;;;;;;;6157089;23;19923;-94
2023/09/30 14:12:31;;;;;;;;;;;;;;;;;;6157766;23;19905;-94
2023/09/30 14:14:57;;;;;;;;;;;;;;;;;;6156948;23;19905;-93
2023/09/30 14:17:25;;;;;;;;;;;;;;;;;;6158947;23;19912;-94
2023/09/30 14:19:55;;;;;;;;;;;;;;;;;;6158906;23;19905;-93
2023/09/30 14:22:35;;;;;;;;;;;;;;;;;;6159970;23;20240;-93
2023/09/30 14:25:02;;;;;;;;;;;;;;;;;;6157115;23;19996;-93
2023/09/30 14:27:28;;;;;;;;;;;;;;;;;;6158576;23;19995;-92
2023/09/30 14:29:55;;;;;;;;;;;;;;;;;;6158175;23;19951;-92
2023/09/30 14:32:23;;;;;;;;;;;;;;;;;;6156510;23;19951;-93
2023/09/30 14:34:49;;;;;;;;;;;;;;;;;;6158000;23;19931;-92
2023/09/30 14:37:17;;;;;;;;;;;;;;;;;;6158528;23;20246;-92
2023/09/30 14:39:43;;;;;;;;;;;;;;;;;;6155097;23;19909;-94
2023/09/30 14:42:08;;;;;;;;;;;;;;;;;;6155977;23;19916;-93
2023/09/30 14:44:34;;;;;;;;;;;;;;;;;;6156901;23;19912;-93
2023/09/30 14:47:00;;;;;;;;;;;;;;;;;;6155589;23;19967;-93
2023/09/30 14:49:26;;;;;;;;;;;;;;;;;;6155603;23;19908;-93
2023/09/30 14:51:52;;;;;;;;;;;;;;;;;;6153960;23;19932;-93
2023/09/30 14:54:19;;;;;;;;;;;;;;;;;;6153578;23;19908;-93
2023/09/30 14:56:46;;;;;;;;;;;;;;;;;;6153546;23;19979;-93
2023/09/30 14:59:15;;;;;;;;;;;;;;;;;;6153790;23;19904;-92
2023/09/30 15:01:41;;;;;;;;;;;;;;;;;;6153756;23;20213;-93
2023/09/30 15:04:07;;;;;;;;;;;;;;;;;;6152147;23;19904;-93
2023/09/30 15:06:34;;;;;;;;;;;;;;;;;;6155473;23;19908;-93
2023/09/30 15:09:00;;;;;;;;;;;;;;;;;;6154000;23;19905;-94
2023/09/30 15:11:26;;;;;;;;;;;;;;;;;;6154938;23;19916;-93
2023/09/30 15:13:52;;;;;;;;;;;;;;;;;;6153527;23;19905;-93
2023/09/30 15:16:18;;;;;;;;;;;;;;;;;;6154910;23;20234;-93
2023/09/30 15:18:45;;;;;;;;;;;;;;;;;;6153453;23;19904;-95
2023/09/30 15:21:12;;;;;;;;;;;;;;;;;;6156132;23;19927;-95
2023/09/30 15:23:38;;;;;;;;;;;;;;;;;;6154078;23;20347;-95
2023/09/30 15:26:04;;;;;;;;;;;;;;;;;;6157395;23;19912;-94
2023/09/30 15:28:30;;;;;;;;;;;;;;;;;;6129044;23;19912;-96
2023/09/30 15:30:55;;;;;;;;;;;;;;;;;;6129367;23;19909;-95
2023/09/30 15:33:22;;;;;;;;;;;;;;;;;;6131882;23;19915;-95
2023/09/30 15:35:48;;;;;;;;;;;;;;;;;;6156030;23;20355;-95
2023/09/30 15:38:14;;;;;;;;;;;;;;;;;;6131162;23;19943;-95
2023/09/30 15:40:40;;;;;;;;;;;;;;;;;;6129660;23;19909;-95
2023/09/30 15:43:07;;;;;;;;;;;;;;;;;;6156729;23;19904;-96
2023/09/30 15:45:33;;;;;;;;;;;;;;;;;;6129668;23;19943;-96
2023/09/30 15:48:00;;;;;;;;;;;;;;;;;;6155355;23;19909;-95
2023/09/30 15:50:26;;;;;;;;;;;;;;;;;;6130503;23;19956;-96
2023/09/30 15:52:52;;;;;;;;;;;;;;;;;;6130417;23;19916;-96
2023/09/30 15:55:17;;;;;;;;;;;;;;;;;;6131176;23;19905;-95
2023/09/30 15:57:43;;;;;;;;;;;;;;;;;;6129376;23;19909;-95
2023/09/30 16:00:10;;;;;;;;;;;;;;;;;;6156069;23;19959;-95
2023/09/30 16:02:36;;;;;;;;;;;;;;;;;;6127869;23;19909;-96
2023/09/30 16:05:02;;;;;;;;;;;;;;;;;;6155901;23;19908;-95
2023/09/30 16:07:28;;;;;;;;;;;;;;;;;;6129480;23;19916;-95
2023/09/30 16:09:54;;;;;;;;;;;;;;;;;;6129520;23;19913;-94
2023/09/30 16:12:20;;;;;;;;;;;;;;;;;;6128590;23;19915;-95
2023/09/30 16:14:46;;;;;;;;;;;;;;;;;;6127902;23;19915;-95
2023/09/30 16:17:12;;;;;;;;;;;;;;;;;;6129675;23;19940;-96
2023/09/30 16:19:38;;;;;;;;;;;;;;;;;;6128866;23;19956;-95
2023/09/30 16:22:05;;;;;;;;;;;;;;;;;;6133650;23;20271;-96
2023/09/30 16:24:32;;;;;;;;;;;;;;;;;;6160087;23;19904;-96
2023/09/30 16:26:58;;;;;;;;;;;;;;;;;;6144213;23;19917;-96
2023/09/30 16:29:24;;;;;;;;;;;;;;;;;;6157955;23;19912;-94
2023/09/30 16:31:50;;;;;;;;;;;;;;;;;;6156064;23;19905;-94
2023/09/30 16:34:16;;;;;;;;;;;;;;;;;;6155953;23;19904;-94
2023/09/30 16:36:42;;;;;;;;;;;;;;;;;;6156279;23;19932;-93
2023/09/30 16:39:08;;;;;;;;;;;;;;;;;;6154629;23;19913;-93
2023/09/30 16:41:37;;;;;;;;;;;;;;;;;;6155448;23;19905;-93